sensor_id;sensor_type;location;lat;lon;timestamp;temperature;humidity
41304;DHT22;51002;51.462;7.218;2023-07-16T00:01:16;19.60;86.50
41304;DHT22;51002;51.462;7.218;2023-07-16T00:03:41;19.50;81.90
41304;DHT22;51002;51.462;7.218;2023-07-16T00:06:07;19.60;84.90
41304;DHT22;51002;51.462;7.218;2023-07-16T00:08:32;19.50;82.80
41304;DHT22;51002;51.462;7.218;2023-07-16T00:10:57;19.60;85.60
41304;DHT22;51002;51.462;7.218;2023-07-16T00:13:25;19.60;85.10
41304;DHT22;51002;51.462;7.218;2023-07-16T00:15:51;19.60;85.60
41304;DHT22;51002;51.462;7.218;2023-07-16T00:18:16;19.50;84.60
41304;DHT22;51002;51.462;7.218;2023-07-16T00:20:41;19.50;85.30
41304;DHT22;51002;51.462;7.218;2023-07-16T00:23:09;19.50;85.40
41304;DHT22;51002;51.462;7.218;2023-07-16T00:25:35;19.40;85.00
41304;DHT22;51002;51.462;7.218;2023-07-16T00:28:00;19.50;86.50
41304;DHT22;51002;51.462;7.218;2023-07-16T00:30:26;19.50;85.80
41304;DHT22;51002;51.462;7.218;2023-07-16T00:32:51;19.50;84.40
41304;DHT22;51002;51.462;7.218;2023-07-16T00:35:17;19.40;82.30
41304;DHT22;51002;51.462;7.218;2023-07-16T00:37:42;19.50;85.50
41304;DHT22;51002;51.462;7.218;2023-07-16T00:40:09;19.50;85.20
41304;DHT22;51002;51.462;7.218;2023-07-16T00:42:35;19.50;86.50
41304;DHT22;51002;51.462;7.218;2023-07-16T00:45:00;19.50;86.20
41304;DHT22;51002;51.462;7.218;2023-07-16T00:47:26;19.50;86.30
41304;DHT22;51002;51.462;7.218;2023-07-16T00:49:51;19.50;86.60
41304;DHT22;51002;51.462;7.218;2023-07-16T00:52:18;19.50;85.30
41304;DHT22;51002;51.462;7.218;2023-07-16T00:54:43;19.50;84.90
41304;DHT22;51002;51.462;7.218;2023-07-16T00:57:09;19.50;84.90
41304;DHT22;51002;51.462;7.218;2023-07-16T00:59:34;19.60;84.40
41304;DHT22;51002;51.462;7.218;2023-07-16T01:02:00;19.50;84.80
41304;DHT22;51002;51.462;7.218;2023-07-16T01:04:28;19.60;85.10
41304;DHT22;51002;51.462;7.218;2023-07-16T01:06:55;19.50;87.00
41304;DHT22;51002;51.462;7.218;2023-07-16T01:09:22;19.50;87.10
41304;DHT22;51002;51.462;7.218;2023-07-16T01:11:47;19.40;84.70
41304;DHT22;51002;51.462;7.218;2023-07-16T01:14:14;19.50;86.50
41304;DHT22;51002;51.462;7.218;2023-07-16T01:16:41;19.50;87.50
41304;DHT22;51002;51.462;7.218;2023-07-16T01:19:06;19.50;88.00
41304;DHT22;51002;51.462;7.218;2023-07-16T01:21:35;19.30;85.20
41304;DHT22;51002;51.462;7.218;2023-07-16T01:24:14;19.30;84.50
41304;DHT22;51002;51.462;7.218;2023-07-16T01:31:59;19.30;87.00
41304;DHT22;51002;51.462;7.218;2023-07-16T01:34:25;19.30;85.50
41304;DHT22;51002;51.462;7.218;2023-07-16T01:36:53;19.30;85.40
41304;DHT22;51002;51.462;7.218;2023-07-16T01:39:19;19.30;85.80
41304;DHT22;51002;51.462;7.218;2023-07-16T01:41:44;19.30;85.80
41304;DHT22;51002;51.462;7.218;2023-07-16T01:44:12;19.30;86.30
41304;DHT22;51002;51.462;7.218;2023-07-16T01:46:39;19.30;86.90
41304;DHT22;51002;51.462;7.218;2023-07-16T01:49:05;19.30;87.10
41304;DHT22;51002;51.462;7.218;2023-07-16T01:51:30;19.30;87.40
41304;DHT22;51002;51.462;7.218;2023-07-16T01:53:56;19.30;87.40
41304;DHT22;51002;51.462;7.218;2023-07-16T01:56:21;19.20;86.80
41304;DHT22;51002;51.462;7.218;2023-07-16T01:58:47;19.20;87.00
41304;DHT22;51002;51.462;7.218;2023-07-16T02:01:12;19.20;87.00
41304;DHT22;51002;51.462;7.218;2023-07-16T02:03:38;19.20;87.10
41304;DHT22;51002;51.462;7.218;2023-07-16T02:06:04;19.20;87.50
41304;DHT22;51002;51.462;7.218;2023-07-16T02:08:30;19.20;87.40
41304;DHT22;51002;51.462;7.218;2023-07-16T02:10:55;19.20;87.10
41304;DHT22;51002;51.462;7.218;2023-07-16T02:13:21;19.10;86.40
41304;DHT22;51002;51.462;7.218;2023-07-16T02:15:47;19.10;87.20
41304;DHT22;51002;51.462;7.218;2023-07-16T02:18:12;19.20;87.20
41304;DHT22;51002;51.462;7.218;2023-07-16T02:20:41;19.20;87.00
41304;DHT22;51002;51.462;7.218;2023-07-16T02:23:10;19.20;87.40
41304;DHT22;51002;51.462;7.218;2023-07-16T02:25:35;19.10;85.90
41304;DHT22;51002;51.462;7.218;2023-07-16T02:28:01;19.20;86.80
41304;DHT22;51002;51.462;7.218;2023-07-16T02:30:27;19.20;86.60
41304;DHT22;51002;51.462;7.218;2023-07-16T02:32:53;19.20;84.70
41304;DHT22;51002;51.462;7.218;2023-07-16T02:35:18;19.20;84.80
41304;DHT22;51002;51.462;7.218;2023-07-16T02:37:43;19.20;85.60
41304;DHT22;51002;51.462;7.218;2023-07-16T02:40:09;19.20;85.80
41304;DHT22;51002;51.462;7.218;2023-07-16T02:42:35;19.30;86.20
41304;DHT22;51002;51.462;7.218;2023-07-16T02:45:02;19.30;86.00
41304;DHT22;51002;51.462;7.218;2023-07-16T02:47:28;19.20;85.80
41304;DHT22;51002;51.462;7.218;2023-07-16T02:49:56;19.20;84.60
41304;DHT22;51002;51.462;7.218;2023-07-16T02:52:24;19.20;85.80
41304;DHT22;51002;51.462;7.218;2023-07-16T02:54:49;19.20;85.40
41304;DHT22;51002;51.462;7.218;2023-07-16T02:57:15;19.20;83.40
41304;DHT22;51002;51.462;7.218;2023-07-16T02:59:42;19.30;84.40
41304;DHT22;51002;51.462;7.218;2023-07-16T03:02:08;19.30;84.90
41304;DHT22;51002;51.462;7.218;2023-07-16T03:04:33;19.30;84.90
41304;DHT22;51002;51.462;7.218;2023-07-16T03:06:59;19.20;82.90
41304;DHT22;51002;51.462;7.218;2023-07-16T03:09:24;19.30;85.50
41304;DHT22;51002;51.462;7.218;2023-07-16T03:11:49;19.30;84.00
41304;DHT22;51002;51.462;7.218;2023-07-16T03:14:15;19.30;84.30
41304;DHT22;51002;51.462;7.218;2023-07-16T03:16:40;19.30;82.90
41304;DHT22;51002;51.462;7.218;2023-07-16T03:19:06;19.30;83.90
41304;DHT22;51002;51.462;7.218;2023-07-16T03:21:32;19.30;84.30
41304;DHT22;51002;51.462;7.218;2023-07-16T03:23:57;19.30;84.40
41304;DHT22;51002;51.462;7.218;2023-07-16T03:26:25;19.20;84.90
41304;DHT22;51002;51.462;7.218;2023-07-16T03:28:50;19.10;81.70
41304;DHT22;51002;51.462;7.218;2023-07-16T03:31:18;19.20;83.80
41304;DHT22;51002;51.462;7.218;2023-07-16T03:33:44;19.10;83.80
41304;DHT22;51002;51.462;7.218;2023-07-16T03:36:09;19.10;83.30
41304;DHT22;51002;51.462;7.218;2023-07-16T03:38:37;19.10;81.00
41304;DHT22;51002;51.462;7.218;2023-07-16T03:41:05;19.00;83.20
41304;DHT22;51002;51.462;7.218;2023-07-16T03:43:30;19.00;82.70
41304;DHT22;51002;51.462;7.218;2023-07-16T03:45:56;19.00;81.60
41304;DHT22;51002;51.462;7.218;2023-07-16T03:48:21;18.90;81.20
41304;DHT22;51002;51.462;7.218;2023-07-16T03:50:47;18.90;80.70
41304;DHT22;51002;51.462;7.218;2023-07-16T03:53:13;18.80;79.60
41304;DHT22;51002;51.462;7.218;2023-07-16T03:55:41;18.90;80.00
41304;DHT22;51002;51.462;7.218;2023-07-16T03:58:06;18.90;83.00
41304;DHT22;51002;51.462;7.218;2023-07-16T04:00:31;18.80;80.30
41304;DHT22;51002;51.462;7.218;2023-07-16T04:02:58;18.80;80.20
41304;DHT22;51002;51.462;7.218;2023-07-16T04:05:23;18.80;80.10
41304;DHT22;51002;51.462;7.218;2023-07-16T04:07:49;18.80;79.30
41304;DHT22;51002;51.462;7.218;2023-07-16T04:10:14;18.90;80.50
41304;DHT22;51002;51.462;7.218;2023-07-16T04:12:40;18.80;80.10
41304;DHT22;51002;51.462;7.218;2023-07-16T04:15:07;18.80;78.10
41304;DHT22;51002;51.462;7.218;2023-07-16T04:17:33;18.80;81.10
41304;DHT22;51002;51.462;7.218;2023-07-16T04:19:58;18.80;77.10
41304;DHT22;51002;51.462;7.218;2023-07-16T04:22:24;18.80;77.90
41304;DHT22;51002;51.462;7.218;2023-07-16T04:24:49;18.70;76.00
41304;DHT22;51002;51.462;7.218;2023-07-16T04:27:17;18.70;76.20
41304;DHT22;51002;51.462;7.218;2023-07-16T04:29:42;18.80;79.00
41304;DHT22;51002;51.462;7.218;2023-07-16T04:32:08;18.80;77.40
41304;DHT22;51002;51.462;7.218;2023-07-16T04:34:33;18.80;79.50
41304;DHT22;51002;51.462;7.218;2023-07-16T04:37:01;18.80;77.30
41304;DHT22;51002;51.462;7.218;2023-07-16T04:39:27;18.80;80.00
41304;DHT22;51002;51.462;7.218;2023-07-16T04:41:52;18.80;78.70
41304;DHT22;51002;51.462;7.218;2023-07-16T04:44:18;18.80;77.70
41304;DHT22;51002;51.462;7.218;2023-07-16T04:46:43;18.70;75.60
41304;DHT22;51002;51.462;7.218;2023-07-16T04:49:09;18.60;72.80
41304;DHT22;51002;51.462;7.218;2023-07-16T04:51:34;18.70;76.70
41304;DHT22;51002;51.462;7.218;2023-07-16T04:54:00;18.70;76.70
41304;DHT22;51002;51.462;7.218;2023-07-16T04:56:25;18.70;76.50
41304;DHT22;51002;51.462;7.218;2023-07-16T04:58:51;18.80;78.20
41304;DHT22;51002;51.462;7.218;2023-07-16T05:01:16;18.70;74.90
41304;DHT22;51002;51.462;7.218;2023-07-16T05:03:42;18.70;75.70
41304;DHT22;51002;51.462;7.218;2023-07-16T05:06:07;18.70;74.80
41304;DHT22;51002;51.462;7.218;2023-07-16T05:08:33;18.70;76.00
41304;DHT22;51002;51.462;7.218;2023-07-16T05:10:58;18.70;73.80
41304;DHT22;51002;51.462;7.218;2023-07-16T05:13:26;18.70;74.40
41304;DHT22;51002;51.462;7.218;2023-07-16T05:15:52;18.70;74.60
41304;DHT22;51002;51.462;7.218;2023-07-16T05:18:17;18.70;72.20
41304;DHT22;51002;51.462;7.218;2023-07-16T05:20:46;18.70;75.10
41304;DHT22;51002;51.462;7.218;2023-07-16T05:23:11;18.70;75.40
41304;DHT22;51002;51.462;7.218;2023-07-16T05:25:37;18.80;76.50
41304;DHT22;51002;51.462;7.218;2023-07-16T05:28:04;18.60;72.60
41304;DHT22;51002;51.462;7.218;2023-07-16T05:30:30;18.70;75.10
41304;DHT22;51002;51.462;7.218;2023-07-16T05:32:56;18.70;73.90
41304;DHT22;51002;51.462;7.218;2023-07-16T05:35:21;18.80;75.00
41304;DHT22;51002;51.462;7.218;2023-07-16T05:37:47;18.80;73.00
41304;DHT22;51002;51.462;7.218;2023-07-16T05:40:12;18.80;72.10
41304;DHT22;51002;51.462;7.218;2023-07-16T05:42:38;18.80;73.60
41304;DHT22;51002;51.462;7.218;2023-07-16T05:45:03;18.70;71.30
41304;DHT22;51002;51.462;7.218;2023-07-16T05:47:29;18.80;74.40
41304;DHT22;51002;51.462;7.218;2023-07-16T05:49:54;18.80;72.50
41304;DHT22;51002;51.462;7.218;2023-07-16T05:52:20;18.80;71.00
41304;DHT22;51002;51.462;7.218;2023-07-16T05:54:45;18.80;72.70
41304;DHT22;51002;51.462;7.218;2023-07-16T05:57:11;18.80;70.20
41304;DHT22;51002;51.462;7.218;2023-07-16T05:59:41;18.90;70.90
41304;DHT22;51002;51.462;7.218;2023-07-16T06:02:07;18.70;68.70
41304;DHT22;51002;51.462;7.218;2023-07-16T06:04:32;18.70;67.80
41304;DHT22;51002;51.462;7.218;2023-07-16T06:06:58;18.80;69.00
41304;DHT22;51002;51.462;7.218;2023-07-16T06:09:23;18.80;71.50
41304;DHT22;51002;51.462;7.218;2023-07-16T06:11:49;18.90;70.90
41304;DHT22;51002;51.462;7.218;2023-07-16T06:14:14;18.80;67.70
41304;DHT22;51002;51.462;7.218;2023-07-16T06:16:40;18.90;67.80
41304;DHT22;51002;51.462;7.218;2023-07-16T06:19:05;18.90;67.00
41304;DHT22;51002;51.462;7.218;2023-07-16T06:21:31;18.90;66.60
41304;DHT22;51002;51.462;7.218;2023-07-16T06:23:57;19.00;67.30
41304;DHT22;51002;51.462;7.218;2023-07-16T06:26:25;18.90;67.40
41304;DHT22;51002;51.462;7.218;2023-07-16T06:28:51;19.10;67.70
41304;DHT22;51002;51.462;7.218;2023-07-16T06:31:17;19.10;67.10
41304;DHT22;51002;51.462;7.218;2023-07-16T06:33:42;19.20;68.90
41304;DHT22;51002;51.462;7.218;2023-07-16T06:36:08;19.20;69.00
41304;DHT22;51002;51.462;7.218;2023-07-16T06:38:33;19.20;66.80
41304;DHT22;51002;51.462;7.218;2023-07-16T06:40:59;19.20;67.10
41304;DHT22;51002;51.462;7.218;2023-07-16T06:43:24;19.20;64.40
41304;DHT22;51002;51.462;7.218;2023-07-16T06:45:50;19.30;64.40
41304;DHT22;51002;51.462;7.218;2023-07-16T06:48:18;19.60;65.50
41304;DHT22;51002;51.462;7.218;2023-07-16T06:50:44;19.90;62.70
41304;DHT22;51002;51.462;7.218;2023-07-16T06:53:10;19.80;64.00
41304;DHT22;51002;51.462;7.218;2023-07-16T06:55:37;19.90;62.00
41304;DHT22;51002;51.462;7.218;2023-07-16T06:58:03;19.90;62.30
41304;DHT22;51002;51.462;7.218;2023-07-16T07:00:28;20.30;61.30
41304;DHT22;51002;51.462;7.218;2023-07-16T07:02:54;20.50;61.30
41304;DHT22;51002;51.462;7.218;2023-07-16T07:05:19;20.60;62.30
41304;DHT22;51002;51.462;7.218;2023-07-16T07:07:45;20.70;67.00
41304;DHT22;51002;51.462;7.218;2023-07-16T07:10:11;20.60;65.50
41304;DHT22;51002;51.462;7.218;2023-07-16T07:12:37;20.70;65.20
41304;DHT22;51002;51.462;7.218;2023-07-16T07:15:06;20.50;65.20
41304;DHT22;51002;51.462;7.218;2023-07-16T07:17:32;20.40;68.40
41304;DHT22;51002;51.462;7.218;2023-07-16T07:19:58;20.50;67.50
41304;DHT22;51002;51.462;7.218;2023-07-16T07:22:25;20.60;69.10
41304;DHT22;51002;51.462;7.218;2023-07-16T07:24:51;20.70;69.30
41304;DHT22;51002;51.462;7.218;2023-07-16T07:27:16;20.90;68.80
41304;DHT22;51002;51.462;7.218;2023-07-16T07:29:42;20.80;65.20
41304;DHT22;51002;51.462;7.218;2023-07-16T07:32:10;20.80;60.60
41304;DHT22;51002;51.462;7.218;2023-07-16T07:34:37;20.70;61.70
41304;DHT22;51002;51.462;7.218;2023-07-16T07:37:05;20.80;67.50
41304;DHT22;51002;51.462;7.218;2023-07-16T07:39:31;21.10;66.00
41304;DHT22;51002;51.462;7.218;2023-07-16T07:41:59;21.20;65.20
41304;DHT22;51002;51.462;7.218;2023-07-16T07:44:24;21.10;59.50
41304;DHT22;51002;51.462;7.218;2023-07-16T07:46:50;21.10;61.90
41304;DHT22;51002;51.462;7.218;2023-07-16T07:49:17;21.20;59.70
41304;DHT22;51002;51.462;7.218;2023-07-16T07:51:43;21.20;62.50
41304;DHT22;51002;51.462;7.218;2023-07-16T07:54:08;21.40;58.90
41304;DHT22;51002;51.462;7.218;2023-07-16T07:56:34;21.20;62.70
41304;DHT22;51002;51.462;7.218;2023-07-16T07:58:59;21.00;59.10
41304;DHT22;51002;51.462;7.218;2023-07-16T08:01:25;21.00;57.10
41304;DHT22;51002;51.462;7.218;2023-07-16T08:03:51;21.20;61.90
41304;DHT22;51002;51.462;7.218;2023-07-16T08:06:16;21.10;62.00
41304;DHT22;51002;51.462;7.218;2023-07-16T08:08:42;21.30;59.60
41304;DHT22;51002;51.462;7.218;2023-07-16T08:11:09;21.30;59.50
41304;DHT22;51002;51.462;7.218;2023-07-16T08:13:35;21.50;56.50
41304;DHT22;51002;51.462;7.218;2023-07-16T08:16:01;21.40;55.70
41304;DHT22;51002;51.462;7.218;2023-07-16T08:18:26;21.80;60.30
41304;DHT22;51002;51.462;7.218;2023-07-16T08:20:51;21.70;57.70
41304;DHT22;51002;51.462;7.218;2023-07-16T08:23:17;21.90;57.50
41304;DHT22;51002;51.462;7.218;2023-07-16T08:25:43;22.30;55.80
41304;DHT22;51002;51.462;7.218;2023-07-16T08:28:08;22.30;59.30
41304;DHT22;51002;51.462;7.218;2023-07-16T08:30:34;22.20;59.20
41304;DHT22;51002;51.462;7.218;2023-07-16T08:32:59;21.90;57.70
41304;DHT22;51002;51.462;7.218;2023-07-16T08:35:25;22.10;59.30
41304;DHT22;51002;51.462;7.218;2023-07-16T08:37:50;22.00;56.30
41304;DHT22;51002;51.462;7.218;2023-07-16T08:40:18;22.20;58.60
41304;DHT22;51002;51.462;7.218;2023-07-16T08:42:45;21.90;52.70
41304;DHT22;51002;51.462;7.218;2023-07-16T08:45:12;21.90;58.50
41304;DHT22;51002;51.462;7.218;2023-07-16T08:47:41;21.80;55.60
41304;DHT22;51002;51.462;7.218;2023-07-16T08:50:10;21.80;53.70
41304;DHT22;51002;51.462;7.218;2023-07-16T08:52:36;22.10;53.10
41304;DHT22;51002;51.462;7.218;2023-07-16T08:55:02;22.10;54.00
41304;DHT22;51002;51.462;7.218;2023-07-16T08:57:30;22.30;54.70
41304;DHT22;51002;51.462;7.218;2023-07-16T08:59:58;22.30;55.70
41304;DHT22;51002;51.462;7.218;2023-07-16T09:02:24;22.40;53.20
41304;DHT22;51002;51.462;7.218;2023-07-16T09:04:49;22.60;52.60
41304;DHT22;51002;51.462;7.218;2023-07-16T09:07:18;22.60;51.00
41304;DHT22;51002;51.462;7.218;2023-07-16T09:09:43;23.00;50.20
41304;DHT22;51002;51.462;7.218;2023-07-16T09:12:19;23.50;49.80
41304;DHT22;51002;51.462;7.218;2023-07-16T09:14:51;24.20;49.00
41304;DHT22;51002;51.462;7.218;2023-07-16T09:17:26;25.20;44.80
41304;DHT22;51002;51.462;7.218;2023-07-16T09:19:55;25.50;43.60
41304;DHT22;51002;51.462;7.218;2023-07-16T09:22:20;26.00;45.20
41304;DHT22;51002;51.462;7.218;2023-07-16T09:24:48;26.40;44.60
41304;DHT22;51002;51.462;7.218;2023-07-16T09:27:14;26.80;40.20
41304;DHT22;51002;51.462;7.218;2023-07-16T09:29:40;26.90;40.20
41304;DHT22;51002;51.462;7.218;2023-07-16T09:32:07;27.30;39.60
41304;DHT22;51002;51.462;7.218;2023-07-16T09:34:33;27.90;42.00
41304;DHT22;51002;51.462;7.218;2023-07-16T09:36:59;26.90;41.90
41304;DHT22;51002;51.462;7.218;2023-07-16T09:39:25;27.10;41.60
41304;DHT22;51002;51.462;7.218;2023-07-16T09:41:51;27.30;42.90
41304;DHT22;51002;51.462;7.218;2023-07-16T09:44:16;28.00;38.50
41304;DHT22;51002;51.462;7.218;2023-07-16T09:46:42;28.80;38.00
41304;DHT22;51002;51.462;7.218;2023-07-16T09:49:08;28.30;36.40
41304;DHT22;51002;51.462;7.218;2023-07-16T09:51:35;28.20;37.10
41304;DHT22;51002;51.462;7.218;2023-07-16T09:54:03;27.50;39.20
41304;DHT22;51002;51.462;7.218;2023-07-16T09:56:32;28.20;37.60
41304;DHT22;51002;51.462;7.218;2023-07-16T09:58:59;28.90;36.90
41304;DHT22;51002;51.462;7.218;2023-07-16T10:01:24;29.60;34.80
41304;DHT22;51002;51.462;7.218;2023-07-16T10:03:50;29.10;36.90
41304;DHT22;51002;51.462;7.218;2023-07-16T10:06:17;28.80;37.30
41304;DHT22;51002;51.462;7.218;2023-07-16T10:08:48;29.10;37.20
41304;DHT22;51002;51.462;7.218;2023-07-16T10:11:17;29.50;38.80
41304;DHT22;51002;51.462;7.218;2023-07-16T10:13:43;30.00;37.20
41304;DHT22;51002;51.462;7.218;2023-07-16T10:16:09;30.10;34.50
41304;DHT22;51002;51.462;7.218;2023-07-16T10:18:49;30.10;33.60
41304;DHT22;51002;51.462;7.218;2023-07-16T10:21:22;30.00;35.10
41304;DHT22;51002;51.462;7.218;2023-07-16T10:23:47;30.20;34.90
41304;DHT22;51002;51.462;7.218;2023-07-16T10:26:25;30.20;36.20
41304;DHT22;51002;51.462;7.218;2023-07-16T10:28:51;29.80;35.80
41304;DHT22;51002;51.462;7.218;2023-07-16T10:31:17;29.00;35.90
41304;DHT22;51002;51.462;7.218;2023-07-16T10:33:42;28.90;36.80
41304;DHT22;51002;51.462;7.218;2023-07-16T10:36:17;29.00;37.00
41304;DHT22;51002;51.462;7.218;2023-07-16T10:38:43;29.10;36.90
41304;DHT22;51002;51.462;7.218;2023-07-16T10:41:08;28.90;37.30
41304;DHT22;51002;51.462;7.218;2023-07-16T10:43:34;28.60;36.50
41304;DHT22;51002;51.462;7.218;2023-07-16T10:45:59;28.50;36.30
41304;DHT22;51002;51.462;7.218;2023-07-16T10:48:27;28.20;36.90
41304;DHT22;51002;51.462;7.218;2023-07-16T10:50:53;28.20;38.20
41304;DHT22;51002;51.462;7.218;2023-07-16T10:53:21;27.80;37.70
41304;DHT22;51002;51.462;7.218;2023-07-16T10:55:46;28.00;37.60
41304;DHT22;51002;51.462;7.218;2023-07-16T10:58:14;27.60;37.80
41304;DHT22;51002;51.462;7.218;2023-07-16T11:00:42;28.00;37.00
41304;DHT22;51002;51.462;7.218;2023-07-16T11:03:07;27.70;39.30
41304;DHT22;51002;51.462;7.218;2023-07-16T11:05:34;27.80;38.70
41304;DHT22;51002;51.462;7.218;2023-07-16T11:08:00;27.60;38.60
41304;DHT22;51002;51.462;7.218;2023-07-16T11:10:27;27.70;39.10
41304;DHT22;51002;51.462;7.218;2023-07-16T11:12:53;27.40;39.60
41304;DHT22;51002;51.462;7.218;2023-07-16T11:15:19;26.80;41.10
41304;DHT22;51002;51.462;7.218;2023-07-16T11:17:54;26.80;40.80
41304;DHT22;51002;51.462;7.218;2023-07-16T11:20:20;26.70;41.70
41304;DHT22;51002;51.462;7.218;2023-07-16T11:22:46;26.80;41.10
41304;DHT22;51002;51.462;7.218;2023-07-16T11:25:12;26.70;42.10
41304;DHT22;51002;51.462;7.218;2023-07-16T11:27:39;26.30;41.30
41304;DHT22;51002;51.462;7.218;2023-07-16T11:30:08;26.70;44.20
41304;DHT22;51002;51.462;7.218;2023-07-16T11:35:02;26.70;42.10
41304;DHT22;51002;51.462;7.218;2023-07-16T11:37:29;26.50;42.60
41304;DHT22;51002;51.462;7.218;2023-07-16T11:40:05;26.30;41.00
41304;DHT22;51002;51.462;7.218;2023-07-16T11:42:32;26.40;43.20
41304;DHT22;51002;51.462;7.218;2023-07-16T11:44:58;26.20;41.90
41304;DHT22;51002;51.462;7.218;2023-07-16T11:47:25;26.20;41.50
41304;DHT22;51002;51.462;7.218;2023-07-16T11:49:50;26.20;42.00
41304;DHT22;51002;51.462;7.218;2023-07-16T11:52:20;26.20;41.90
41304;DHT22;51002;51.462;7.218;2023-07-16T11:54:45;26.10;42.50
41304;DHT22;51002;51.462;7.218;2023-07-16T11:57:13;26.20;41.10
41304;DHT22;51002;51.462;7.218;2023-07-16T11:59:39;26.00;42.30
41304;DHT22;51002;51.462;7.218;2023-07-16T12:02:04;26.20;45.70
41304;DHT22;51002;51.462;7.218;2023-07-16T12:04:30;25.90;42.70
41304;DHT22;51002;51.462;7.218;2023-07-16T12:06:55;26.00;42.90
41304;DHT22;51002;51.462;7.218;2023-07-16T12:09:23;25.90;44.90
41304;DHT22;51002;51.462;7.218;2023-07-16T12:11:49;25.80;46.50
41304;DHT22;51002;51.462;7.218;2023-07-16T12:14:14;25.30;43.10
41304;DHT22;51002;51.462;7.218;2023-07-16T12:16:44;25.80;44.10
41304;DHT22;51002;51.462;7.218;2023-07-16T12:19:10;25.90;42.00
41304;DHT22;51002;51.462;7.218;2023-07-16T12:21:38;25.90;43.10
41304;DHT22;51002;51.462;7.218;2023-07-16T12:24:06;25.60;43.70
41304;DHT22;51002;51.462;7.218;2023-07-16T12:26:33;25.90;45.10
41304;DHT22;51002;51.462;7.218;2023-07-16T12:28:59;25.70;44.20
41304;DHT22;51002;51.462;7.218;2023-07-16T12:31:28;25.40;43.60
41304;DHT22;51002;51.462;7.218;2023-07-16T12:33:53;25.50;42.70
41304;DHT22;51002;51.462;7.218;2023-07-16T12:36:21;25.60;43.40
41304;DHT22;51002;51.462;7.218;2023-07-16T12:38:51;25.70;46.30
41304;DHT22;51002;51.462;7.218;2023-07-16T12:41:16;25.60;43.70
41304;DHT22;51002;51.462;7.218;2023-07-16T12:43:42;25.50;46.80
41304;DHT22;51002;51.462;7.218;2023-07-16T12:46:08;25.40;46.50
41304;DHT22;51002;51.462;7.218;2023-07-16T12:48:34;25.30;44.20
41304;DHT22;51002;51.462;7.218;2023-07-16T12:51:02;25.60;44.80
41304;DHT22;51002;51.462;7.218;2023-07-16T12:53:27;25.40;44.20
41304;DHT22;51002;51.462;7.218;2023-07-16T12:55:53;25.60;46.00
41304;DHT22;51002;51.462;7.218;2023-07-16T12:58:19;25.70;47.10
41304;DHT22;51002;51.462;7.218;2023-07-16T13:00:44;25.40;44.90
41304;DHT22;51002;51.462;7.218;2023-07-16T13:03:10;25.70;45.40
41304;DHT22;51002;51.462;7.218;2023-07-16T13:05:40;25.70;46.10
41304;DHT22;51002;51.462;7.218;2023-07-16T13:08:05;25.60;43.60
41304;DHT22;51002;51.462;7.218;2023-07-16T13:10:34;25.80;46.20
41304;DHT22;51002;51.462;7.218;2023-07-16T13:12:59;25.80;44.20
41304;DHT22;51002;51.462;7.218;2023-07-16T13:15:25;25.80;43.00
41304;DHT22;51002;51.462;7.218;2023-07-16T13:17:50;25.80;45.00
41304;DHT22;51002;51.462;7.218;2023-07-16T13:20:17;25.70;43.50
41304;DHT22;51002;51.462;7.218;2023-07-16T13:22:43;25.70;42.80
41304;DHT22;51002;51.462;7.218;2023-07-16T13:25:08;25.80;45.70
41304;DHT22;51002;51.462;7.218;2023-07-16T13:27:34;25.70;42.10
41304;DHT22;51002;51.462;7.218;2023-07-16T13:30:02;25.70;45.30
41304;DHT22;51002;51.462;7.218;2023-07-16T13:32:30;25.60;43.20
41304;DHT22;51002;51.462;7.218;2023-07-16T13:34:58;25.50;43.80
41304;DHT22;51002;51.462;7.218;2023-07-16T13:37:23;25.60;43.90
41304;DHT22;51002;51.462;7.218;2023-07-16T13:39:49;25.50;42.20
41304;DHT22;51002;51.462;7.218;2023-07-16T13:42:14;25.70;43.20
41304;DHT22;51002;51.462;7.218;2023-07-16T13:44:42;25.80;43.10
41304;DHT22;51002;51.462;7.218;2023-07-16T13:47:10;25.70;44.00
41304;DHT22;51002;51.462;7.218;2023-07-16T13:49:36;25.60;44.00
41304;DHT22;51002;51.462;7.218;2023-07-16T13:52:01;25.60;44.80
41304;DHT22;51002;51.462;7.218;2023-07-16T13:54:29;25.70;44.60
41304;DHT22;51002;51.462;7.218;2023-07-16T13:56:54;25.80;45.10
41304;DHT22;51002;51.462;7.218;2023-07-16T13:59:20;25.70;43.60
41304;DHT22;51002;51.462;7.218;2023-07-16T14:01:45;25.70;47.30
41304;DHT22;51002;51.462;7.218;2023-07-16T14:04:12;25.70;43.90
41304;DHT22;51002;51.462;7.218;2023-07-16T14:06:37;25.70;44.20
41304;DHT22;51002;51.462;7.218;2023-07-16T14:09:03;25.70;43.90
41304;DHT22;51002;51.462;7.218;2023-07-16T14:11:30;25.50;43.70
41304;DHT22;51002;51.462;7.218;2023-07-16T14:13:56;25.50;46.70
41304;DHT22;51002;51.462;7.218;2023-07-16T14:16:21;25.30;43.70
41304;DHT22;51002;51.462;7.218;2023-07-16T14:18:50;25.30;45.00
41304;DHT22;51002;51.462;7.218;2023-07-16T14:21:16;25.40;44.50
41304;DHT22;51002;51.462;7.218;2023-07-16T14:23:41;25.00;43.70
41304;DHT22;51002;51.462;7.218;2023-07-16T14:26:07;25.40;46.90
41304;DHT22;51002;51.462;7.218;2023-07-16T14:28:32;25.40;47.00
41304;DHT22;51002;51.462;7.218;2023-07-16T14:30:57;25.40;46.60
41304;DHT22;51002;51.462;7.218;2023-07-16T14:33:23;25.50;45.70
41304;DHT22;51002;51.462;7.218;2023-07-16T14:35:51;25.60;45.60
41304;DHT22;51002;51.462;7.218;2023-07-16T14:38:16;25.40;45.90
41304;DHT22;51002;51.462;7.218;2023-07-16T14:40:42;25.40;44.50
41304;DHT22;51002;51.462;7.218;2023-07-16T14:43:09;25.50;44.50
41304;DHT22;51002;51.462;7.218;2023-07-16T14:45:35;25.50;47.20
41304;DHT22;51002;51.462;7.218;2023-07-16T14:48:03;25.20;45.10
41304;DHT22;51002;51.462;7.218;2023-07-16T14:50:29;25.30;44.50
41304;DHT22;51002;51.462;7.218;2023-07-16T14:52:55;25.10;46.10
41304;DHT22;51002;51.462;7.218;2023-07-16T14:55:21;25.30;48.40
41304;DHT22;51002;51.462;7.218;2023-07-16T14:57:48;25.20;45.10
41304;DHT22;51002;51.462;7.218;2023-07-16T15:00:13;25.40;47.90
41304;DHT22;51002;51.462;7.218;2023-07-16T15:02:39;25.40;47.60
41304;DHT22;51002;51.462;7.218;2023-07-16T15:05:06;25.50;44.60
41304;DHT22;51002;51.462;7.218;2023-07-16T15:07:34;25.30;45.20
41304;DHT22;51002;51.462;7.218;2023-07-16T15:10:00;25.50;46.30
41304;DHT22;51002;51.462;7.218;2023-07-16T15:12:25;25.30;44.00
41304;DHT22;51002;51.462;7.218;2023-07-16T15:14:53;25.20;45.60
41304;DHT22;51002;51.462;7.218;2023-07-16T15:17:19;25.20;44.50
41304;DHT22;51002;51.462;7.218;2023-07-16T15:19:44;25.20;44.50
41304;DHT22;51002;51.462;7.218;2023-07-16T15:22:12;25.20;43.80
41304;DHT22;51002;51.462;7.218;2023-07-16T15:24:38;25.30;45.50
41304;DHT22;51002;51.462;7.218;2023-07-16T15:27:03;25.20;45.30
41304;DHT22;51002;51.462;7.218;2023-07-16T15:29:29;25.10;45.10
41304;DHT22;51002;51.462;7.218;2023-07-16T15:31:54;25.10;44.70